Cold Springs, Nevada
Current Conditions -  °F | °C
As of 1:35 PM on Thursday 18 Dec 2014 (Local Time) from KRTS Reporting Station
Scattered Clouds Scattered Clouds  
Wind Chill:   Ceiling: Unl
Heat Index:   Visibility: 10mi
Dew Point: -2°   Wind: 0mph
Humidity: 53%   Direction: NA
Pressure: 30.1"   Gusts: NA
Location:  39.7378°N, 119.889°W
Report Text: KRTS 182135Z AUTO 00000KT 10SM SCT090 07/M02 A3010 RMK AO2
Loading
Personal Weather Stations






























Interactive Weather Map New forecast layout! Learn more

10-Day Weather Forecast

Advertisements
Track Severe Weather on mobile